Time;durP1;ratioP1;P1;durP2;ratioP2;P2;SDS_P1;SDS_P2;PMS_P1;PMS_P2;Temp;Humidity;BMP_temperature;BMP_pressure;BME280_temperature;BME280_humidity;BME280_pressure;Samples;Min_cycle;Max_cycle;Signal;HPM_P1;HPM_P2
2023/05/30 00:02:21;;;;;;;2.78;0.73;;;;;;;;;;4974753;28;20078;-80
2023/05/30 00:04:47;;;;;;;2.88;1.00;;;;;;;;;;4975089;28;20439;-80
2023/05/30 00:07:13;;;;;;;2.17;0.90;;;;;;;;;;4974942;28;20019;-80
2023/05/30 00:09:39;;;;;;;4.25;0.82;;;;;;;;;;4975076;28;20405;-80
2023/05/30 00:12:05;;;;;;;3.42;0.80;;;;;;;;;;4974842;28;20078;-80
2023/05/30 00:14:31;;;;;;;2.22;0.82;;;;;;;;;;4974983;28;20031;-80
2023/05/30 00:16:58;;;;;;;3.13;0.90;;;;;;;;;;4974715;28;20039;-80
2023/05/30 00:19:24;;;;;;;3.10;0.85;;;;;;;;;;4974657;28;20023;-80
2023/05/30 00:21:50;;;;;;;1.85;0.80;;;;;;;;;;4974745;28;20117;-80
2023/05/30 00:24:16;;;;;;;1.98;0.70;;;;;;;;;;4974669;28;20035;-80
2023/05/30 00:26:42;;;;;;;5.40;1.05;;;;;;;;;;4974658;28;20102;-80
2023/05/30 00:29:08;;;;;;;4.63;1.08;;;;;;;;;;4974689;28;20026;-80
2023/05/30 00:31:34;;;;;;;3.30;1.15;;;;;;;;;;4974488;28;20058;-80
2023/05/30 00:34:00;;;;;;;3.03;0.90;;;;;;;;;;4974669;28;20058;-80
2023/05/30 00:36:26;;;;;;;2.92;0.57;;;;;;;;;;4974276;28;20039;-80
2023/05/30 00:38:52;;;;;;;3.05;1.00;;;;;;;;;;4974414;28;20061;-80
2023/05/30 00:41:18;;;;;;;2.20;0.70;;;;;;;;;;4974381;28;20066;-79
2023/05/30 00:43:44;;;;;;;1.83;0.55;;;;;;;;;;4974347;28;20035;-80
2023/05/30 00:46:11;;;;;;;5.13;1.05;;;;;;;;;;4974187;28;20497;-80
2023/05/30 00:48:38;;;;;;;2.63;0.70;;;20.90;53.70;;;;;;4974377;28;20106;-79
2023/05/30 00:51:06;;;;;;;2.47;0.77;;;21.00;56.50;;;;;;4974235;28;20419;-80
2023/05/30 00:53:32;;;;;;;1.25;0.50;;;;;;;;;;4974420;28;20019;-80
2023/05/30 00:55:59;;;;;;;2.97;0.88;;;;;;;;;;4973966;28;20074;-80
2023/05/30 00:58:25;;;;;;;3.55;1.00;;;;;;;;;;4974057;28;20031;-80
2023/05/30 01:00:51;;;;;;;2.33;1.05;;;;;;;;;;4973992;28;20136;-80
2023/05/30 01:03:17;;;;;;;1.88;0.85;;;20.80;56.40;;;;;;4973378;28;20517;-79
2023/05/30 01:05:44;;;;;;;0.90;0.50;;;;;;;;;;4974032;28;20078;-80
2023/05/30 01:08:10;;;;;;;1.23;0.68;;;;;;;;;;4973878;28;20450;-80
2023/05/30 01:10:37;;;;;;;2.97;1.00;;;;;;;;;;4974079;28;20034;-80
2023/05/30 01:13:03;;;;;;;2.10;0.70;;;;;;;;;;4973988;28;20031;-79
2023/05/30 01:15:36;;;;;;;2.70;1.02;;;20.80;50.70;;;;;;4973578;28;20105;-80
2023/05/30 01:18:03;;;;;;;1.27;0.60;;;;;;;;;;4973778;28;20497;-79
2023/05/30 01:20:47;;;;;;;2.28;0.68;;;20.70;56.10;;;;;;4973677;28;20031;-80
2023/05/30 01:23:14;;;;;;;2.38;0.93;;;;;;;;;;4973744;28;20046;-80
2023/05/30 01:25:40;;;;;;;2.47;0.73;;;;;;;;;;4973771;28;20474;-80
2023/05/30 01:28:12;;;;;;;2.05;0.70;;;20.60;56.50;;;;;;4973660;28;20082;-80
2023/05/30 01:30:42;;;;;;;2.40;0.85;;;20.70;56.50;;;;;;4973856;28;20030;-80
2023/05/30 01:33:09;;;;;;;;;;;20.70;57.50;;;;;;4973983;28;20058;-79
2023/05/30 01:35:35;;;;;;;3.28;0.95;;;;;;;;;;4973571;28;20280;-79
2023/05/30 01:38:02;;;;;;;2.05;0.90;;;;;;;;;;4973461;28;20062;-79
2023/05/30 01:40:28;;;;;;;2.55;0.80;;;20.60;56.60;;;;;;4973373;28;20081;-80
2023/05/30 01:43:01;;;;;;;2.85;0.82;;;20.60;50.70;;;;;;4973378;28;20018;-80
2023/05/30 01:45:49;;;;;;;2.75;1.05;;;20.50;50.80;;;;;;4973245;28;20031;-80
2023/05/30 01:48:25;;;;;;;2.72;1.05;;;20.60;56.40;;;;;;4963253;28;20114;-77
2023/05/30 01:50:52;;;;;;;1.63;0.70;;;20.50;56.80;;;;;;4973220;28;20494;-77
2023/05/30 01:53:25;;;;;;;2.25;0.80;;;20.60;56.30;;;;;;4973471;28;20023;-77
2023/05/30 01:55:55;;;;;;;2.03;0.90;;;20.50;56.30;;;;;;4973142;28;20487;-77
2023/05/30 01:58:23;;;;;;;1.52;0.73;;;21.30;56.70;;;;;;4973288;28;20374;-77
2023/05/30 02:00:50;;;;;;;2.55;0.80;;;20.50;53.90;;;;;;4973048;28;20026;-77
2023/05/30 02:03:16;;;;;;;1.67;0.77;;;;;;;;;;4972969;28;20542;-77
2023/05/30 02:05:42;;;;;;;2.55;0.68;;;;;;;;;;4973085;28;20127;-77
2023/05/30 02:08:08;;;;;;;3.95;1.10;;;;;;;;;;4973185;28;20076;-77
2023/05/30 02:10:34;;;;;;;2.30;0.80;;;;;;;;;;4973076;28;20027;-77
2023/05/30 02:13:00;;;;;;;1.25;0.93;;;;;;;;;;4973229;28;20433;-77
2023/05/30 02:15:26;;;;;;;1.73;0.80;;;;;;;;;;4973517;28;20042;-77
2023/05/30 02:17:53;;;;;;;3.92;0.88;;;;;;;;;;4977107;28;20109;-77
2023/05/30 02:20:20;;;;;;;4.05;1.00;;;;;;;;;;4976905;28;20548;-77
2023/05/30 02:22:46;;;;;;;1.27;0.73;;;;;;;;;;4976864;28;20037;-77
2023/05/30 02:25:13;;;;;;;2.63;0.77;;;;;;;;;;4977113;28;20027;-80
2023/05/30 02:27:40;;;;;;;3.08;0.85;;;;;;;;;;4976777;28;20034;-79
2023/05/30 02:30:07;;;;;;;1.75;0.85;;;;;;;;;;4976765;28;20042;-79
2023/05/30 02:32:33;;;;;;;1.98;0.57;;;;;;;;;;4976967;28;20027;-79
2023/05/30 02:35:00;;;;;;;2.88;0.80;;;;;;;;;;4976847;28;20408;-80
2023/05/30 02:37:27;;;;;;;1.00;0.73;;;;;;;;;;4976857;28;20517;-79
2023/05/30 02:39:54;;;;;;;3.35;1.02;;;;;;;;;;4976805;28;20105;-80
2023/05/30 02:42:20;;;;;;;2.88;0.90;;;;;;;;;;4976759;28;20031;-79
2023/05/30 02:44:47;;;;;;;4.13;1.25;;;;;;;;;;4976801;28;20063;-79
2023/05/30 02:47:13;;;;;;;2.60;1.00;;;;;;;;;;4976425;28;20478;-79
2023/05/30 02:49:40;;;;;;;1.70;1.02;;;;;;;;;;4976753;28;20449;-80
2023/05/30 02:52:06;;;;;;;3.00;0.95;;;;;;;;;;4976571;28;20051;-80
2023/05/30 02:54:33;;;;;;;1.75;0.75;;;;;;;;;;4976715;28;20026;-79
2023/05/30 02:57:00;;;;;;;1.73;0.70;;;;;;;;;;4976381;28;20042;-79
2023/05/30 02:59:26;;;;;;;1.40;0.68;;;;;;;;;;4976608;28;20367;-80
2023/05/30 03:01:52;;;;;;;1.98;0.70;;;;;;;;;;4976274;28;20105;-80
2023/05/30 03:04:19;;;;;;;1.20;0.80;;;;;;;;;;4976480;28;20409;-80
2023/05/30 03:06:50;;;;;;;2.75;0.68;;;;;;;;;;4976329;28;20030;-80
2023/05/30 03:09:17;;;;;;;1.85;0.70;;;;;;;;;;4976005;28;20026;-79
2023/05/30 03:11:43;;;;;;;1.30;0.40;;;;;;;;;;4975985;28;20035;-79
2023/05/30 03:14:10;;;;;;;2.05;1.08;;;;;;;;;;4976149;28;20065;-80
2023/05/30 03:16:36;;;;;;;1.60;0.50;;;;;;;;;;4975818;28;20042;-79
2023/05/30 03:19:02;;;;;;;1.42;0.70;;;;;;;;;;4976156;28;20421;-80
2023/05/30 03:21:29;;;;;;;2.70;0.93;;;;;;;;;;4975859;28;20458;-79
2023/05/30 03:23:55;;;;;;;2.17;1.20;;;;;;;;;;4975695;28;20030;-80
2023/05/30 03:26:22;;;;;;;1.48;1.05;;;;;;;;;;4958590;28;20026;-80
2023/05/30 03:28:48;;;;;;;1.88;0.80;;;;;;;;;;4975628;28;20035;-80
2023/05/30 03:31:15;;;;;;;3.05;1.20;;;;;;;;;;4975913;28;20031;-79
2023/05/30 03:33:41;;;;;;;3.25;0.95;;;;;;;;;;4975855;28;20039;-79
2023/05/30 03:36:10;;;;;;;1.25;0.73;;;;;;;;;;4975721;28;20417;-79
2023/05/30 03:38:37;;;;;;;3.75;1.10;;;;;;;;;;4975938;28;20082;-77
2023/05/30 03:41:04;;;;;;;2.53;0.60;;;20.00;54.60;;;;;;4975646;28;20097;-77
2023/05/30 03:43:31;;;;;;;2.80;1.10;;;;;;;;;;4975812;28;20030;-77
2023/05/30 03:45:57;;;;;;;1.77;0.82;;;;;;;;;;4975355;28;20054;-77
2023/05/30 03:48:24;;;;;;;2.47;0.77;;;;;;;;;;4975620;28;20033;-77
2023/05/30 03:50:50;;;;;;;2.83;1.05;;;;;;;;;;4975576;28;20093;-77
2023/05/30 03:53:16;;;;;;;2.75;0.80;;;;;;;;;;4975425;28;20019;-77
2023/05/30 03:55:43;;;;;;;2.80;1.10;;;;;;;;;;4975524;28;20417;-77
2023/05/30 03:58:09;;;;;;;2.65;0.73;;;;;;;;;;4975499;28;20026;-77
2023/05/30 04:00:36;;;;;;;1.83;0.85;;;;;;;;;;4975085;28;20618;-77
2023/05/30 04:03:02;;;;;;;2.30;0.80;;;;;;;;;;4974866;28;20047;-77
2023/05/30 04:05:29;;;;;;;3.20;1.00;;;;;;;;;;4975309;28;20455;-77
2023/05/30 04:07:55;;;;;;;1.83;0.98;;;;;;;;;;4975275;28;20027;-77
2023/05/30 04:10:22;;;;;;;3.42;0.93;;;;;;;;;;4975118;28;20051;-77
2023/05/30 04:12:48;;;;;;;2.88;0.85;;;;;;;;;;4974985;28;20062;-77
2023/05/30 04:15:15;;;;;;;1.67;0.80;;;;;;;;;;4974842;28;20058;-77
2023/05/30 04:17:41;;;;;;;1.77;0.75;;;;;;;;;;4975105;28;20047;-77
2023/05/30 04:20:12;;;;;;;1.13;0.50;;;;;;;;;;4974939;28;20033;-77
2023/05/30 04:22:38;;;;;;;1.83;0.70;;;;;;;;;;4975223;28;20102;-78
2023/05/30 04:25:05;;;;;;;1.38;0.68;;;;;;;;;;4974978;28;20390;-77
2023/05/30 04:27:32;;;;;;;2.85;1.00;;;;;;;;;;4974884;28;20066;-76
2023/05/30 04:30:02;;;;;;;3.80;1.23;;;;;;;;;;4974637;28;20027;-77
2023/05/30 04:32:33;;;;;;;1.60;0.80;;;;;;;;;;4974642;28;20085;-77
2023/05/30 04:35:00;;;;;;;2.42;0.80;;;;;;;;;;4974555;28;20030;-77
2023/05/30 04:37:27;;;;;;;2.78;0.90;;;;;;;;;;4974469;28;20486;-77
2023/05/30 04:39:56;;;;;;;1.40;0.82;;;;;;;;;;4973984;28;20026;-76
2023/05/30 04:42:28;;;;;;;2.25;0.90;;;19.70;52.80;;;;;;4974305;28;20035;-77
2023/05/30 04:44:55;;;;;;;2.13;0.90;;;;;;;;;;4974351;28;20054;-77
2023/05/30 04:47:24;;;;;;;1.63;1.00;;;;;;;;;;4974256;28;20114;-77
2023/05/30 04:49:53;;;;;;;3.35;1.00;;;;;;;;;;4974387;28;20433;-77
2023/05/30 04:52:19;;;;;;;1.77;1.00;;;;;;;;;;4974314;28;20266;-77
2023/05/30 04:54:45;;;;;;;0.80;0.60;;;;;;;;;;4974298;28;20489;-77
2023/05/30 04:57:12;;;;;;;1.52;0.50;;;;;;;;;;4974161;28;20045;-77
2023/05/30 04:59:39;;;;;;;3.45;0.90;;;;;;;;;;4974430;28;20038;-77
2023/05/30 05:02:06;;;;;;;3.28;1.15;;;;;;;;;;4974079;28;20071;-77
2023/05/30 05:04:32;;;;;;;1.92;0.50;;;;;;;;;;4974303;28;20082;-77
2023/05/30 05:06:58;;;;;;;3.08;0.70;;;;;;;;;;4974223;28;20370;-76
2023/05/30 05:09:26;;;;;;;1.20;0.70;;;;;;;;;;4974237;28;20019;-77
2023/05/30 05:11:53;;;;;;;1.35;0.70;;;19.70;56.90;;;;;;4974109;28;20042;-77
2023/05/30 05:14:19;;;;;;;2.55;1.05;;;;;;;;;;4973991;28;20038;-77
2023/05/30 05:16:46;;;;;;;2.28;0.68;;;;;;;;;;4973592;28;20560;-77
2023/05/30 05:19:12;;;;;;;1.30;0.60;;;;;;;;;;4973732;28;20381;-77
2023/05/30 05:21:38;;;;;;;2.03;0.70;;;;;;;;;;4973648;28;20023;-77
2023/05/30 05:24:05;;;;;;;2.72;0.88;;;;;;;;;;4973693;28;20027;-76
2023/05/30 05:26:31;;;;;;;1.10;0.68;;;;;;;;;;4973754;28;20050;-77
2023/05/30 05:28:57;;;;;;;2.95;1.33;;;;;;;;;;4973622;28;20031;-79
2023/05/30 05:31:23;;;;;;;2.00;0.70;;;;;;;;;;4973493;28;20065;-79
2023/05/30 05:33:49;;;;;;;3.05;1.00;;;;;;;;;;4973437;28;20027;-79
2023/05/30 05:36:15;;;;;;;4.47;1.17;;;;;;;;;;4973422;28;20117;-78
2023/05/30 05:38:41;;;;;;;1.67;0.70;;;;;;;;;;4973458;28;20035;-79
2023/05/30 05:41:07;;;;;;;2.00;0.77;;;;;;;;;;4973653;28;20162;-79
2023/05/30 05:43:33;;;;;;;1.42;0.73;;;;;;;;;;4973352;28;20027;-79
2023/05/30 05:45:59;;;;;;;2.15;0.88;;;;;;;;;;4973472;28;20371;-79
2023/05/30 05:48:25;;;;;;;1.92;0.80;;;;;;;;;;4955973;28;20033;-79
2023/05/30 05:50:52;;;;;;;2.25;0.85;;;;;;;;;;4973201;28;20454;-79
2023/05/30 05:53:17;;;;;;;2.72;0.80;;;;;;;;;;4973337;28;20035;-80
2023/05/30 05:55:45;;;;;;;1.67;0.63;;;;;;;;;;4973118;28;20031;-77
2023/05/30 05:58:11;;;;;;;2.13;1.10;;;;;;;;;;4973125;28;20027;-79
2023/05/30 06:00:37;;;;;;;3.15;1.00;;;;;;;;;;4973027;28;20027;-80
2023/05/30 06:03:03;;;;;;;1.77;0.90;;;;;;;;;;4972967;28;20051;-78
2023/05/30 06:05:29;;;;;;;1.70;0.73;;;;;;;;;;4973173;28;20035;-77
2023/05/30 06:07:58;;;;;;;1.17;0.82;;;;;;;;;;4973395;28;20113;-78
2023/05/30 06:10:24;;;;;;;3.35;1.00;;;;;;;;;;4973423;28;20102;-77
2023/05/30 06:12:50;;;;;;;1.15;0.73;;;;;;;;;;4973112;28;20029;-77
2023/05/30 06:15:16;;;;;;;1.27;0.80;;;;;;;;;;4972985;28;20685;-78
2023/05/30 06:17:42;;;;;;;3.55;0.77;;;;;;;;;;4972970;28;20469;-77
2023/05/30 06:20:09;;;;;;;2.08;0.90;;;;;;;;;;4973088;28;20031;-78
2023/05/30 06:22:35;;;;;;;2.75;1.05;;;;;;;;;;4973032;28;20027;-78
2023/05/30 06:25:01;;;;;;;3.33;1.10;;;;;;;;;;4972950;28;20134;-78
2023/05/30 06:27:27;;;;;;;1.63;0.80;;;;;;;;;;4973088;28;20081;-78
2023/05/30 06:29:53;;;;;;;3.33;1.10;;;;;;;;;;4972845;28;20478;-78
2023/05/30 06:32:19;;;;;;;1.75;1.00;;;;;;;;;;4955549;28;20478;-78
2023/05/30 06:34:46;;;;;;;4.10;1.02;;;;;;;;;;4972871;28;20031;-79
2023/05/30 06:37:15;;;;;;;2.78;0.82;;;19.50;47.30;;;;;;4973084;28;20134;-78
2023/05/30 06:39:41;;;;;;;2.20;0.73;;;19.80;68.00;;;;;;4972849;28;20031;-78
2023/05/30 06:42:08;;;;;;;1.60;1.08;;;19.60;58.70;;;;;;4972897;28;20062;-78
2023/05/30 06:44:35;;;;;;;2.03;0.70;;;;;;;;;;4972849;28;20109;-74
2023/05/30 06:47:01;;;;;;;2.92;1.20;;;;;;;;;;4972693;28;20062;-78
2023/05/30 06:49:27;;;;;;;3.42;0.93;;;;;;;;;;4972789;28;20034;-81
2023/05/30 06:51:53;;;;;;;5.32;1.10;;;;;;;;;;4972674;28;20029;-80
2023/05/30 06:54:19;;;;;;;2.40;1.00;;;;;;;;;;4972733;28;20389;-81
2023/05/30 06:56:45;;;;;;;2.42;1.20;;;;;;;;;;4972657;28;20039;-81
2023/05/30 06:59:11;;;;;;;2.08;0.88;;;;;;;;;;4972700;28;20023;-81
2023/05/30 07:01:37;;;;;;;4.03;1.10;;;;;;;;;;4973073;28;20026;-80
2023/05/30 07:04:03;;;;;;;3.95;1.40;;;;;;;;;;4976173;28;20035;-80
2023/05/30 07:06:29;;;;;;;2.15;1.23;;;;;;;;;;4976154;28;20118;-80
2023/05/30 07:08:55;;;;;;;3.28;0.85;;;;;;;;;;4976073;28;20023;-81
2023/05/30 07:11:22;;;;;;;3.35;1.10;;;;;;;;;;4976018;28;20131;-79
2023/05/30 07:13:48;;;;;;;2.00;0.98;;;;;;;;;;4976005;28;20050;-78
2023/05/30 07:16:14;;;;;;;2.47;1.23;;;;;;;;;;4975915;28;20035;-77
2023/05/30 07:18:40;;;;;;;3.42;1.27;;;;;;;;;;4975996;28;20125;-77
2023/05/30 07:21:07;;;;;;;4.25;1.20;;;;;;;;;;4975762;28;20026;-77
2023/05/30 07:23:34;;;;;;;3.65;1.42;;;19.70;59.70;;;;;;4975633;28;20034;-77
2023/05/30 07:26:00;;;;;;;2.45;1.30;;;;;;;;;;4975757;28;20030;-77
2023/05/30 07:28:26;;;;;;;3.42;1.35;;;;;;;;;;4975801;28;20117;-77
2023/05/30 07:30:52;;;;;;;3.25;1.30;;;;;;;;;;4975699;28;20489;-77
2023/05/30 07:33:18;;;;;;;3.03;1.10;;;;;;;;;;4975641;28;20037;-77
2023/05/30 07:35:45;;;;;;;2.20;1.05;;;;;;;;;;4975588;28;20038;-77
2023/05/30 07:38:11;;;;;;;3.85;1.25;;;;;;;;;;4975796;28;20022;-77
2023/05/30 07:40:37;;;;;;;3.15;1.20;;;;;;;;;;4975456;28;20038;-77
2023/05/30 07:43:03;;;;;;;6.15;1.23;;;;;;;;;;4975667;28;20078;-78
2023/05/30 07:45:30;;;;;;;1.85;1.38;;;;;;;;;;4975867;28;20030;-78
2023/05/30 07:47:56;;;;;;;2.50;1.02;;;;;;;;;;4975580;28;20030;-78
2023/05/30 07:50:23;;;;;;;3.85;1.02;;;;;;;;;;4975672;28;20027;-77
2023/05/30 07:52:49;;;;;;;2.53;1.27;;;;;;;;;;4975174;28;20066;-76
2023/05/30 07:55:15;;;;;;;3.45;1.20;;;;;;;;;;4975345;28;20062;-76
2023/05/30 07:57:42;;;;;;;3.08;1.15;;;;;;;;;;4975101;28;20062;-76
2023/05/30 08:00:09;;;;;;;3.30;1.52;;;;;;;;;;4975413;28;20038;-76
2023/05/30 08:02:35;;;;;;;2.47;1.30;;;;;;;;;;4974957;28;20098;-76
2023/05/30 08:05:02;;;;;;;2.65;1.23;;;;;;;;;;4975360;28;20092;-76
2023/05/30 08:07:31;;;;;;;3.63;1.40;;;;;;;;;;4975022;28;20042;-76
2023/05/30 08:09:58;;;;;;;4.18;1.33;;;;;;;;;;4974986;28;20031;-80
2023/05/30 08:12:28;;;;;;;3.67;1.20;;;;;;;;;;4974994;28;20532;-78
2023/05/30 08:14:58;;;;;;;2.80;1.75;;;19.90;60.00;;;;;;4974220;28;20031;-79
2023/05/30 08:17:25;;;;;;;4.55;1.42;;;19.90;58.40;;;;;;4975120;28;20233;-82
2023/05/30 08:19:55;;;;;;;2.97;1.20;;;20.00;54.20;;;;;;4974766;28;20033;-80
2023/05/30 08:22:22;;;;;;;;;;;19.90;60.10;;;;;;4975761;28;20026;-80
2023/05/30 08:24:53;;;;;;;3.92;1.48;;;20.10;60.20;;;;;;4975971;28;19996;-84
2023/05/30 08:27:20;;;;;;;5.57;1.40;;;;;;;;;;4976910;28;20425;-80
2023/05/30 08:29:48;;;;;;;5.38;1.48;;;;;;;;;;4974830;28;20388;-78
2023/05/30 08:32:14;;;;;;;3.95;1.38;;;;;;;;;;4974756;28;20062;-82
2023/05/30 08:34:40;;;;;;;2.80;1.60;;;;;;;;;;4974845;28;20030;-81
2023/05/30 08:37:07;;;;;;;3.42;1.50;;;;;;;;;;4974697;28;20105;-81
2023/05/30 08:39:34;;;;;;;2.58;1.20;;;;;;;;;;4974766;28;20026;-78
2023/05/30 08:42:00;;;;;;;3.72;1.13;;;;;;;;;;4974658;28;20039;-81
2023/05/30 08:44:30;;;;;;;3.53;1.20;;;20.10;57.00;;;;;;4974572;28;20109;-76
2023/05/30 08:46:59;;;;;;;2.78;1.17;;;20.10;56.60;;;;;;4974277;28;20482;-78
2023/05/30 08:49:29;;;;;;;3.30;1.20;;;20.20;62.10;;;;;;4974356;28;20054;-79
2023/05/30 08:51:58;;;;;;;4.25;1.58;;;20.30;60.90;;;;;;4974346;28;20429;-79
2023/05/30 08:54:28;;;;;;;3.75;1.30;;;20.20;62.30;;;;;;4957521;28;20011;-79
2023/05/30 08:57:04;;;;;;;4.70;1.35;;;20.30;57.00;;;;;;4973986;28;20030;-79
2023/05/30 08:59:30;;;;;;;2.55;1.42;;;;;;;;;;4974481;28;20158;-79
2023/05/30 09:01:57;;;;;;;4.13;1.35;;;;;;;;;;4974165;28;20046;-79
2023/05/30 09:04:24;;;;;;;5.18;1.40;;;20.40;61.10;;;;;;4974095;28;20023;-80
2023/05/30 09:06:57;;;;;;;6.78;1.63;;;20.60;62.70;;;;;;4974314;28;20050;-80
2023/05/30 09:09:24;;;;;;;3.85;1.33;;;;;;;;;;4974432;28;20030;-80
2023/05/30 09:11:52;;;;;;;6.05;1.80;;;20.50;62.80;;;;;;4974232;28;20031;-81
2023/05/30 09:14:18;;;;;;;3.80;1.50;;;;;;;;;;4973815;28;20050;-80
2023/05/30 09:16:44;;;;;;;3.17;1.60;;;;;;;;;;4973795;28;20038;-81
2023/05/30 09:19:10;;;;;;;3.53;1.48;;;;;;;;;;4973820;28;20031;-80
2023/05/30 09:21:37;;;;;;;3.92;1.42;;;20.80;62.80;;;;;;4973673;28;20027;-80
2023/05/30 09:24:05;;;;;;;5.50;1.48;;;20.90;56.00;;;;;;4973643;28;20478;-80
2023/05/30 09:26:35;;;;;;;3.45;1.52;;;;;;;;;;4973383;28;20035;-81
2023/05/30 09:29:12;;;;;;;3.27;1.37;;;21.10;55.60;;;;;;4973521;28;20034;-80
2023/05/30 09:31:41;;;;;;;3.45;1.00;;;21.20;61.20;;;;;;4974197;28;20029;-77
2023/05/30 09:34:07;;;;;;;4.55;1.52;;;;;;;;;;4973771;28;20023;-79
2023/05/30 09:36:33;;;;;;;3.53;1.40;;;;;;;;;;4973510;28;20126;-78
2023/05/30 09:39:05;;;;;;;3.47;1.45;;;21.30;61.10;;;;;;4973599;28;20505;-81
2023/05/30 09:41:32;;;;;;;1.52;1.10;;;21.40;60.90;;;;;;4973401;28;20031;-80
2023/05/30 09:43:58;;;;;;;1.58;1.35;;;21.40;59.80;;;;;;4973302;28;20031;-80
2023/05/30 09:46:29;;;;;;;3.90;1.50;;;21.50;61.30;;;;;;4972579;28;20027;-80
2023/05/30 09:48:55;;;;;;;3.53;1.10;;;;;;;;;;4972130;28;20429;-79
2023/05/30 09:51:23;;;;;;;3.08;1.42;;;21.50;60.90;;;;;;4972248;28;20150;-79
2023/05/30 09:53:58;;;;;;;4.45;1.77;;;21.60;55.60;;;;;;4972578;28;20436;-78
2023/05/30 09:56:39;;;;;;;4.93;1.55;;;21.60;55.40;;;;;;4972393;28;20393;-79
2023/05/30 09:59:13;;;;;;;5.38;1.67;;;21.70;55.50;;;;;;4972655;28;20028;-79
2023/05/30 10:01:39;;;;;;;4.28;1.70;;;;;;;;;;4973242;28;20031;-79
2023/05/30 10:04:12;;;;;;;4.00;1.75;;;21.90;55.20;;;;;;4973566;28;20121;-79
2023/05/30 10:06:41;;;;;;;2.95;1.35;;;21.90;60.80;;;;;;4973459;28;20363;-79
2023/05/30 10:09:08;;;;;;;4.55;1.60;;;;;;;;;;4973447;28;20027;-79
2023/05/30 10:11:35;;;;;;;4.20;1.20;;;;;;;;;;4973446;28;20102;-79
2023/05/30 10:14:01;;;;;;;3.00;1.20;;;;;;;;;;4973324;28;20035;-79
2023/05/30 10:16:28;;;;;;;2.25;1.48;;;22.20;60.40;;;;;;4973300;28;20108;-79
2023/05/30 10:18:59;;;;;;;3.40;1.70;;;22.30;59.90;;;;;;4973346;28;20434;-79
2023/05/30 10:21:26;;;;;;;2.65;1.20;;;23.00;60.70;;;;;;4973095;28;20106;-79
2023/05/30 10:23:56;;;;;;;5.75;1.95;;;22.30;54.60;;;;;;4973408;28;20026;-78
2023/05/30 10:26:33;;;;;;;2.55;1.48;;;22.40;59.90;;;;;;4973176;28;20026;-78
2023/05/30 10:29:03;;;;;;;2.63;1.50;;;22.50;59.10;;;;;;4973259;28;20484;-78
2023/05/30 10:31:31;;;;;;;3.30;1.38;;;22.50;59.90;;;;;;4973285;28;20029;-78
2023/05/30 10:34:01;;;;;;;2.95;1.33;;;22.50;59.70;;;;;;4973178;28;20022;-78
2023/05/30 10:36:28;;;;;;;4.35;1.38;;;22.60;58.90;;;;;;4973479;28;20031;-78
2023/05/30 10:39:14;;;;;;;3.00;1.42;;;22.60;54.60;;;;;;4976960;28;20367;-78
2023/05/30 10:42:05;;;;;;;2.03;1.40;;;22.70;54.80;;;;;;4976806;28;20125;-78
2023/05/30 10:44:38;;;;;;;5.15;1.60;;;22.80;59.50;;;;;;4976927;28;20110;-78
2023/05/30 10:47:22;;;;;;;5.05;1.50;;;22.90;54.20;;;;;;4976572;28;20513;-78
2023/05/30 10:49:49;;;;;;;3.88;1.45;;;;;;;;;;4976488;28;20466;-78
2023/05/30 10:52:17;;;;;;;2.15;1.15;;;;;;;;;;4976389;28;20026;-78
2023/05/30 10:54:46;;;;;;;3.08;1.30;;;;;;;;;;4976389;28;20026;-78
2023/05/30 10:57:25;;;;;;;2.33;1.25;;;23.10;53.90;;;;;;4976580;28;20450;-78
2023/05/30 11:00:08;;;;;;;3.00;1.30;;;23.10;53.70;;;;;;4976643;28;20030;-78
2023/05/30 11:02:38;;;;;;;1.38;0.90;;;23.30;59.30;;;;;;4976210;28;20074;-77
2023/05/30 11:05:07;;;;;;;;;;;23.10;60.00;;;;;;4976873;28;20057;-78
2023/05/30 11:07:35;;;;;;;3.15;1.52;;;23.40;58.90;;;;;;4976109;28;19906;-78
2023/05/30 11:10:11;;;;;;;3.45;1.15;;;23.40;59.00;;;;;;4976266;28;20390;-78
2023/05/30 11:12:48;;;;;;;3.60;1.30;;;23.40;53.80;;;;;;4976112;28;20027;-78
2023/05/30 11:15:15;;;;;;;1.95;1.02;;;23.60;58.80;;;;;;4976025;28;20031;-77
2023/05/30 11:17:41;;;;;;;2.70;1.73;;;;;;;;;;4976247;28;20393;-78
2023/05/30 11:20:14;;;;;;;5.25;1.60;;;23.60;58.20;;;;;;4976251;28;20378;-78
2023/05/30 11:22:40;;;;;;;2.58;1.50;;;;;;;;;;4976240;28;20052;-78
2023/05/30 11:25:23;;;;;;;4.47;1.40;;;23.80;52.80;;;;;;4975896;28;20106;-78
2023/05/30 11:28:04;;;;;;;3.10;1.30;;;24.00;53.00;;;;;;4976091;28;20371;-77
2023/05/30 11:30:37;;;;;;;2.28;1.30;;;23.90;58.00;;;;;;4976031;28;20093;-78
2023/05/30 11:33:03;;;;;;;2.80;1.58;;;;;;;;;;4975755;28;20031;-78
2023/05/30 11:35:31;;;;;;;2.20;1.10;;;24.00;57.60;;;;;;4975657;28;20114;-78
2023/05/30 11:37:57;;;;;;;2.08;1.08;;;;;;;;;;4975609;28;20034;-79
2023/05/30 11:40:24;;;;;;;4.70;1.40;;;24.10;58.30;;;;;;4975579;28;20413;-79
2023/05/30 11:42:53;;;;;;;2.63;1.27;;;24.20;57.70;;;;;;4975538;28;20046;-79
2023/05/30 11:45:23;;;;;;;2.63;1.33;;;24.20;58.00;;;;;;4975503;28;20031;-79
2023/05/30 11:47:49;;;;;;;3.45;1.30;;;;;;;;;;4975553;28;20030;-79
2023/05/30 11:50:15;;;;;;;2.88;1.42;;;;;;;;;;4975410;28;20030;-79
2023/05/30 11:52:42;;;;;;;3.38;1.60;;;;;;;;;;4975324;28;20035;-79
2023/05/30 11:55:08;;;;;;;2.88;1.35;;;;;;;;;;4975276;28;20019;-78
2023/05/30 11:57:34;;;;;;;2.20;1.10;;;24.50;54.90;;;;;;4975443;28;20031;-78
2023/05/30 12:00:00;;;;;;;2.60;1.30;;;;;;;;;;4975181;28;20034;-78
2023/05/30 12:02:29;;;;;;;2.45;1.20;;;24.70;52.60;;;;;;4975079;28;20122;-78
2023/05/30 12:05:02;;;;;;;2.97;1.23;;;24.60;52.00;;;;;;4975070;28;20477;-78
2023/05/30 12:07:29;;;;;;;1.83;1.33;;;;;;;;;;4975089;28;20038;-78
2023/05/30 12:09:55;;;;;;;1.73;1.40;;;;;;;;;;4975270;28;20034;-78
2023/05/30 12:12:22;;;;;;;2.38;1.35;;;;;;;;;;4975237;28;20031;-78
2023/05/30 12:14:49;;;;;;;3.35;1.23;;;;;;;;;;4975234;28;20436;-78
2023/05/30 12:17:20;;;;;;;2.53;1.48;;;24.80;57.20;;;;;;4974654;28;20035;-78
2023/05/30 12:19:46;;;;;;;2.97;1.25;;;;;;;;;;4975193;28;20027;-78
2023/05/30 12:22:16;;;;;;;3.00;1.20;;;24.90;55.90;;;;;;4974961;28;20062;-78
2023/05/30 12:24:42;;;;;;;3.33;1.50;;;;;;;;;;4974620;28;20504;-78
2023/05/30 12:27:16;;;;;;;1.95;1.17;;;24.90;52.10;;;;;;4974590;28;20037;-78
2023/05/30 12:29:42;;;;;;;2.13;1.30;;;;;;;;;;4974998;28;20353;-79
2023/05/30 12:32:09;;;;;;;2.28;1.15;;;;;;;;;;4974584;28;20033;-80
2023/05/30 12:34:37;;;;;;;1.65;1.23;;;25.10;56.60;;;;;;4974840;28;20046;-79
2023/05/30 12:37:07;;;;;;;1.80;1.10;;;25.10;56.70;;;;;;4974727;28;20039;-77
2023/05/30 12:39:33;;;;;;;2.38;1.30;;;;;;;;;;4974829;28;20019;-77
2023/05/30 12:42:07;;;;;;;2.42;1.50;;;25.00;57.40;;;;;;4974710;28;20030;-77
2023/05/30 12:44:51;;;;;;;1.35;1.20;;;25.20;57.40;;;;;;4974691;28;20077;-78
2023/05/30 12:47:18;;;;;;;3.17;1.25;;;;;;;;;;4974884;28;20022;-77
2023/05/30 12:49:44;;;;;;;5.00;1.17;;;;;;;;;;4974684;28;20058;-77
2023/05/30 12:52:11;;;;;;;1.33;1.10;;;25.20;56.70;;;;;;4974267;28;20109;-77
2023/05/30 12:54:38;;;;;;;1.88;0.98;;;;;;;;;;4974357;28;20098;-77
2023/05/30 12:57:04;;;;;;;1.75;0.95;;;;;;;;;;4974410;28;20038;-78
2023/05/30 12:59:31;;;;;;;3.47;1.17;;;;;;;;;;4973763;28;20038;-77
2023/05/30 13:01:58;;;;;;;1.63;1.00;;;;;;;;;;4974145;28;20448;-78
2023/05/30 13:04:24;;;;;;;2.17;1.08;;;;;;;;;;4973842;28;20105;-79
2023/05/30 13:06:51;;;;;;;2.20;1.13;;;;;;;;;;4974144;28;20054;-77
2023/05/30 13:09:18;;;;;;;4.00;1.15;;;;;;;;;;4974055;28;20034;-77
2023/05/30 13:11:46;;;;;;;1.75;1.02;;;25.10;57.50;;;;;;4974096;28;20106;-77
2023/05/30 13:14:12;;;;;;;1.52;1.10;;;;;;;;;;4973801;28;20482;-77
2023/05/30 13:16:39;;;;;;;1.25;1.08;;;;;;;;;;4973752;28;20070;-77
2023/05/30 13:19:05;;;;;;;1.75;1.00;;;;;;;;;;4973992;28;20023;-77
2023/05/30 13:21:32;;;;;;;1.50;1.10;;;;;;;;;;4973666;28;20119;-78
2023/05/30 13:23:58;;;;;;;1.95;1.00;;;;;;;;;;4974030;28;20062;-78
2023/05/30 13:26:25;;;;;;;1.27;1.10;;;;;;;;;;4973941;28;20062;-77
2023/05/30 13:28:51;;;;;;;1.70;1.02;;;;;;;;;;4973873;28;20041;-77
2023/05/30 13:31:18;;;;;;;1.05;0.98;;;;;;;;;;4973529;28;20043;-77
2023/05/30 13:33:44;;;;;;;1.60;1.00;;;;;;;;;;4973816;28;20037;-77
2023/05/30 13:36:10;;;;;;;2.58;1.20;;;;;;;;;;4973382;28;20030;-78
2023/05/30 13:38:37;;;;;;;1.77;0.93;;;25.30;56.50;;;;;;4973629;28;20031;-77
2023/05/30 13:41:04;;;;;;;3.75;0.73;;;;;;;;;;4973663;28;20027;-77
2023/05/30 13:43:30;;;;;;;1.38;0.95;;;;;;;;;;4973603;28;20050;-77
2023/05/30 13:45:57;;;;;;;1.80;0.95;;;;;;;;;;4973392;28;20031;-79
2023/05/30 13:48:23;;;;;;;0.95;0.82;;;;;;;;;;4973566;28;20030;-79
2023/05/30 13:50:50;;;;;;;0.70;0.70;;;25.20;55.40;;;;;;4973558;28;20030;-79
2023/05/30 13:53:17;;;;;;;1.15;0.80;;;;;;;;;;4973286;28;20081;-79
2023/05/30 13:55:43;;;;;;;1.15;0.63;;;;;;;;;;4973147;28;20070;-79
2023/05/30 13:58:09;;;;;;;2.08;0.98;;;;;;;;;;4973465;28;20425;-79
2023/05/30 14:00:35;;;;;;;1.10;0.70;;;;;;;;;;4973158;28;20053;-79
2023/05/30 14:03:01;;;;;;;1.63;0.90;;;;;;;;;;4973345;28;20478;-78
2023/05/30 14:05:27;;;;;;;1.33;0.60;;;;;;;;;;4973230;28;20385;-78
2023/05/30 14:07:53;;;;;;;1.17;0.85;;;;;;;;;;4973164;28;20022;-78
2023/05/30 14:10:20;;;;;;;0.85;0.60;;;24.80;55.00;;;;;;4973047;28;20393;-78
2023/05/30 14:12:47;;;;;;;1.52;0.85;;;24.80;56.00;;;;;;4975827;28;20067;-78